Terminal Aerodrome Forecast
Issued by NWS Newport/Morehead City, NC

Home | Current Version | Previous Version | Graphics & Text | Print | Product List | Glossary On
Versions: 1 2 3 4 5 6 7 8 9 10 11 12 13 14 15 16 17 18
000
FTUS42 KMHX 282300
TAFEWN
TAF
KEWN 282339Z 2900/2924 18006KT P6SM SCT250
     FM290900 21005KT 6SM BR BKN007 WS015/22030KT
     FM291300 21008KT P6SM SCT035 BKN250=

USA.gov is the U.S. government's official web portal to all federal, state and local government web resources and services.